createdAt,value
2019-03-22T00:00:12.881Z,19.15
2019-03-22T00:02:41.425Z,19.12
2019-03-22T00:05:09.908Z,19.75
2019-03-22T00:07:38.409Z,21.73
2019-03-22T00:10:06.898Z,22.10
2019-03-22T00:12:35.388Z,22.13
2019-03-22T00:15:06.146Z,21.73
2019-03-22T00:17:34.625Z,21.62
2019-03-22T00:20:04.216Z,23.25
2019-03-22T00:22:32.714Z,22.87
2019-03-22T00:25:01.252Z,22.98
2019-03-22T00:27:29.730Z,23.05
2019-03-22T00:29:58.221Z,23.35
2019-03-22T00:32:26.710Z,23.60
2019-03-22T00:34:55.194Z,27.50
2019-03-22T00:37:23.688Z,34.38
2019-03-22T00:39:52.180Z,23.73
2019-03-22T00:42:20.677Z,17.92
2019-03-22T00:44:49.167Z,18.02
2019-03-22T00:47:17.663Z,18.90
2019-03-22T00:49:46.154Z,16.93
2019-03-22T00:52:14.646Z,17.20
2019-03-22T00:54:43.129Z,16.75
2019-03-22T00:57:11.623Z,19.02
2019-03-22T00:59:40.110Z,19.60
2019-03-22T01:02:08.591Z,20.08
2019-03-22T01:04:37.082Z,21.37
2019-03-22T01:07:05.572Z,24.98
2019-03-22T01:09:34.100Z,26.48
2019-03-22T01:12:02.588Z,30.88
2019-03-22T01:14:31.077Z,29.23
2019-03-22T01:16:59.606Z,24.25
2019-03-22T01:19:28.090Z,22.42
2019-03-22T01:21:56.577Z,23.50
2019-03-22T01:24:25.094Z,23.40
2019-03-22T01:26:53.583Z,25.40
2019-03-22T01:29:22.072Z,29.70
2019-03-22T01:31:50.557Z,29.70
2019-03-22T01:34:19.044Z,30.43
2019-03-22T01:36:47.527Z,27.07
2019-03-22T01:39:16.022Z,28.25
2019-03-22T01:41:44.520Z,29.45
2019-03-22T01:44:13.010Z,29.60
2019-03-22T01:46:41.500Z,29.15
2019-03-22T01:49:09.993Z,27.75
2019-03-22T01:51:38.479Z,29.82
2019-03-22T01:54:06.958Z,29.40
2019-03-22T01:56:35.463Z,30.90
2019-03-22T01:59:03.946Z,29.55
2019-03-22T02:01:32.438Z,28.95
2019-03-22T02:04:00.922Z,28.87
2019-03-22T02:06:30.478Z,28.00
2019-03-22T02:08:58.964Z,29.77
2019-03-22T02:11:27.458Z,62.67
2019-03-22T02:13:55.943Z,47.05
2019-03-22T02:16:24.435Z,26.62
2019-03-22T02:18:52.922Z,24.25
2019-03-22T02:21:21.417Z,22.27
2019-03-22T02:23:52.087Z,23.60
2019-03-22T02:26:20.121Z,23.22
2019-03-22T02:28:48.615Z,24.65
2019-03-22T02:31:17.112Z,25.48
2019-03-22T02:33:45.598Z,27.10
2019-03-22T02:36:14.138Z,25.65
2019-03-22T02:38:42.778Z,23.92
2019-03-22T02:41:11.283Z,27.20
2019-03-22T02:43:39.768Z,32.45
2019-03-22T02:46:08.266Z,33.83
2019-03-22T02:48:36.750Z,30.57
2019-03-22T02:51:05.247Z,26.62
2019-03-22T02:53:33.745Z,27.75
2019-03-22T02:56:02.498Z,26.97
2019-03-22T02:58:31.205Z,27.67
2019-03-22T03:00:59.697Z,27.95
2019-03-22T03:03:28.197Z,28.83
2019-03-22T03:05:56.690Z,27.22
2019-03-22T03:08:25.181Z,29.07
2019-03-22T03:10:53.675Z,29.42
2019-03-22T03:13:22.164Z,29.07
2019-03-22T03:15:50.652Z,30.02
2019-03-22T03:18:19.152Z,29.52
2019-03-22T03:20:47.640Z,30.50
2019-03-22T03:23:16.140Z,30.23
2019-03-22T03:25:44.628Z,31.45
2019-03-22T03:28:13.119Z,30.48
2019-03-22T03:30:41.622Z,31.62
2019-03-22T03:33:10.097Z,36.38
2019-03-22T03:35:38.581Z,34.67
2019-03-22T03:38:07.069Z,34.23
2019-03-22T03:40:35.857Z,32.58
2019-03-22T03:43:04.343Z,32.45
2019-03-22T03:45:38.973Z,28.95
2019-03-22T03:48:09.420Z,28.32
2019-03-22T03:50:37.918Z,27.25
2019-03-22T03:53:06.404Z,26.40
2019-03-22T03:55:34.906Z,27.52
2019-03-22T03:58:03.390Z,27.67
2019-03-22T04:00:31.902Z,24.75
2019-03-22T04:03:00.393Z,23.83
2019-03-22T04:05:28.925Z,23.70
2019-03-22T04:07:57.408Z,23.12
2019-03-22T04:10:25.895Z,24.57
2019-03-22T04:12:54.402Z,22.37
2019-03-22T04:15:22.874Z,22.22
2019-03-22T04:17:51.363Z,23.77
2019-03-22T04:20:19.915Z,23.07
2019-03-22T04:22:48.429Z,22.02
2019-03-22T04:25:16.953Z,21.90
2019-03-22T04:27:45.416Z,22.48
2019-03-22T04:30:13.899Z,21.75
2019-03-22T04:32:42.743Z,21.75
2019-03-22T04:35:11.347Z,21.52
2019-03-22T04:37:39.839Z,20.75
2019-03-22T04:40:11.487Z,21.60
2019-03-22T04:42:39.972Z,21.52
2019-03-22T04:45:08.461Z,21.85
2019-03-22T04:47:36.963Z,20.35
2019-03-22T04:50:06.238Z,21.50
2019-03-22T04:52:34.878Z,35.95
2019-03-22T04:55:03.378Z,27.55
2019-03-22T04:57:31.855Z,33.05
2019-03-22T05:00:00.469Z,28.95
2019-03-22T05:02:30.784Z,38.55
2019-03-22T05:04:59.273Z,31.65
2019-03-22T05:07:27.754Z,27.30
2019-03-22T05:09:56.250Z,47.23
2019-03-22T05:12:24.742Z,63.15
2019-03-22T05:14:53.235Z,32.80
2019-03-22T05:17:21.723Z,30.97
2019-03-22T05:19:51.829Z,37.23
2019-03-22T05:22:20.411Z,40.12
2019-03-22T05:24:48.909Z,41.20
2019-03-22T05:27:17.391Z,36.68
2019-03-22T05:29:45.891Z,50.80
2019-03-22T05:32:15.377Z,46.83
2019-03-22T05:34:43.874Z,40.92
2019-03-22T05:37:12.354Z,43.10
2019-03-22T05:39:40.837Z,45.20
2019-03-22T05:42:09.333Z,45.75
2019-03-22T05:44:37.813Z,69.20
2019-03-22T05:47:06.320Z,87.17
2019-03-22T05:49:34.796Z,61.85
2019-03-22T05:52:03.292Z,43.68
2019-03-22T05:54:31.784Z,52.15
2019-03-22T05:57:00.936Z,43.08
2019-03-22T05:59:29.548Z,41.75
2019-03-22T06:01:58.035Z,47.98
2019-03-22T06:04:26.527Z,37.35
2019-03-22T06:06:55.031Z,39.35
2019-03-22T06:09:23.523Z,39.73
2019-03-22T06:11:52.019Z,38.95
2019-03-22T06:14:20.513Z,42.78
2019-03-22T06:16:49.015Z,40.15
2019-03-22T06:19:17.507Z,34.03
2019-03-22T06:21:46.103Z,31.68
2019-03-22T06:24:14.589Z,31.50
2019-03-22T06:26:43.087Z,41.18
2019-03-22T06:29:11.577Z,44.90
2019-03-22T06:31:40.090Z,33.88
2019-03-22T06:34:08.579Z,38.13
2019-03-22T06:36:37.103Z,35.00
2019-03-22T06:39:07.647Z,31.37
2019-03-22T06:41:36.376Z,32.15
2019-03-22T06:44:04.890Z,31.48
2019-03-22T06:46:33.381Z,33.18
2019-03-22T06:49:01.984Z,33.78
2019-03-22T06:51:30.470Z,32.93
2019-03-22T06:53:58.978Z,30.55
2019-03-22T06:56:27.462Z,31.17
2019-03-22T06:58:55.956Z,31.87
2019-03-22T07:01:24.454Z,34.00
2019-03-22T07:03:52.963Z,33.88
2019-03-22T07:06:21.442Z,34.73
2019-03-22T07:08:49.944Z,29.50
2019-03-22T07:11:18.476Z,28.60
2019-03-22T07:13:46.975Z,31.15
2019-03-22T07:16:15.466Z,34.05
2019-03-22T07:18:43.978Z,34.55
2019-03-22T07:21:12.474Z,34.85
2019-03-22T07:23:40.983Z,121.50
2019-03-22T07:26:09.481Z,43.98
2019-03-22T07:28:37.977Z,71.50
2019-03-22T07:31:06.484Z,201.15
2019-03-22T07:33:34.993Z,345.00
2019-03-22T07:36:03.507Z,200.22
2019-03-22T07:38:32.008Z,125.20
2019-03-22T07:41:00.521Z,239.72
2019-03-22T07:43:29.037Z,106.40
2019-03-22T07:45:57.519Z,34.48
2019-03-22T07:48:26.025Z,34.10
2019-03-22T07:50:54.513Z,35.45
2019-03-22T07:53:23.014Z,27.02
2019-03-22T07:55:51.506Z,32.10
2019-03-22T07:58:20.000Z,27.48
2019-03-22T08:00:48.497Z,41.35
2019-03-22T08:03:16.985Z,28.83
2019-03-22T08:05:50.997Z,32.15
2019-03-22T08:08:15.696Z,20.95
2019-03-22T08:10:44.193Z,24.72
2019-03-22T08:13:12.675Z,24.90
2019-03-22T08:15:41.176Z,23.15
2019-03-22T08:18:09.660Z,23.85
2019-03-22T08:20:38.908Z,23.30
2019-03-22T08:23:23.612Z,21.25
2019-03-22T08:25:52.107Z,21.50
2019-03-22T08:28:20.574Z,86.25
2019-03-22T08:30:49.054Z,25.20
2019-03-22T08:33:17.544Z,21.05
2019-03-22T08:35:46.057Z,25.45
2019-03-22T08:38:17.374Z,20.77
2019-03-22T08:40:44.759Z,24.40
2019-03-22T08:43:13.247Z,18.90
2019-03-22T08:45:41.809Z,19.45
2019-03-22T08:48:10.362Z,17.65
2019-03-22T08:50:38.901Z,17.42
2019-03-22T08:53:07.389Z,20.02
2019-03-22T08:55:35.960Z,20.23
2019-03-22T08:58:04.464Z,20.70
2019-03-22T09:00:39.197Z,19.92
2019-03-22T09:03:03.179Z,18.85
2019-03-22T09:05:31.690Z,16.42
2019-03-22T09:08:00.173Z,17.35
2019-03-22T09:10:28.667Z,15.75
2019-03-22T09:12:57.356Z,16.52
2019-03-22T09:15:25.856Z,13.72
2019-03-22T09:17:54.358Z,15.05
2019-03-22T09:20:22.880Z,13.72
2019-03-22T09:22:51.325Z,12.58
2019-03-22T09:25:19.831Z,13.30
2019-03-22T09:27:48.323Z,20.12
2019-03-22T09:30:17.227Z,12.23
2019-03-22T09:32:45.734Z,11.97
2019-03-22T09:35:14.246Z,12.10
2019-03-22T09:37:42.691Z,10.28
2019-03-22T09:40:11.190Z,10.43
2019-03-22T09:42:39.709Z,11.08
2019-03-22T09:45:09.206Z,11.30
2019-03-22T09:47:37.662Z,8.50
2019-03-22T09:50:08.990Z,11.03
2019-03-22T09:52:37.543Z,11.40
2019-03-22T09:55:13.427Z,9.25
2019-03-22T09:57:36.189Z,8.15
2019-03-22T10:00:07.482Z,8.63
2019-03-22T10:02:35.977Z,10.85
2019-03-22T10:05:05.736Z,11.18
2019-03-22T10:07:34.238Z,9.65
2019-03-22T10:10:02.742Z,10.53
2019-03-22T10:12:31.219Z,9.18
2019-03-22T10:14:59.703Z,10.40
2019-03-22T10:17:28.243Z,10.60
2019-03-22T10:19:56.788Z,10.40
2019-03-22T10:22:25.235Z,10.80
2019-03-22T10:24:53.756Z,9.95
2019-03-22T10:27:22.280Z,10.85
2019-03-22T10:29:50.890Z,10.60
2019-03-22T10:32:19.412Z,10.28
2019-03-22T10:34:47.879Z,10.32
2019-03-22T10:37:16.365Z,9.83
2019-03-22T10:39:44.887Z,9.38
2019-03-22T10:42:13.343Z,11.35
2019-03-22T10:44:41.852Z,10.75
2019-03-22T10:47:10.329Z,12.47
2019-03-22T10:49:41.790Z,10.70
2019-03-22T10:52:09.058Z,10.75
2019-03-22T10:54:37.546Z,10.50
2019-03-22T10:57:06.043Z,12.05
2019-03-22T10:59:34.533Z,10.82
2019-03-22T11:02:04.014Z,11.43
2019-03-22T11:04:33.279Z,11.03
2019-03-22T11:07:01.738Z,11.10
2019-03-22T11:09:30.237Z,10.90
2019-03-22T11:11:58.743Z,14.40
2019-03-22T11:14:27.235Z,17.02
2019-03-22T11:16:55.736Z,13.15
2019-03-22T11:19:24.236Z,13.38
2019-03-22T11:21:52.721Z,12.25
2019-03-22T11:24:21.208Z,15.78
2019-03-22T11:26:49.750Z,10.23
2019-03-22T11:29:18.234Z,12.23
2019-03-22T11:31:46.721Z,13.05
2019-03-22T11:34:15.218Z,10.90
2019-03-22T11:36:43.830Z,12.33
2019-03-22T11:39:15.887Z,11.68
2019-03-22T11:41:42.730Z,11.00
2019-03-22T11:44:11.229Z,11.20
2019-03-22T11:46:39.716Z,11.83
2019-03-22T11:49:08.215Z,11.57
2019-03-22T11:51:36.698Z,12.23
2019-03-22T11:54:05.196Z,11.25
2019-03-22T11:56:33.688Z,11.03
2019-03-22T11:59:02.180Z,12.68
2019-03-22T12:01:30.680Z,12.30
2019-03-22T12:03:59.172Z,14.45
2019-03-22T12:06:27.682Z,10.58
2019-03-22T12:08:56.167Z,12.33
2019-03-22T12:11:24.666Z,11.22
2019-03-22T12:13:53.161Z,17.05
2019-03-22T12:16:21.659Z,12.98
2019-03-22T12:18:50.487Z,9.93
2019-03-22T12:21:19.111Z,10.40
2019-03-22T12:23:47.601Z,10.23
2019-03-22T12:26:16.171Z,10.40
2019-03-22T12:28:44.656Z,9.75
2019-03-22T12:31:13.140Z,9.08
2019-03-22T12:33:41.631Z,9.18
2019-03-22T12:36:10.122Z,10.30
2019-03-22T12:38:38.612Z,10.15
2019-03-22T12:41:07.120Z,11.25
2019-03-22T12:43:35.614Z,11.90
2019-03-22T12:46:04.107Z,8.95
2019-03-22T12:48:32.604Z,10.00
2019-03-22T12:51:01.105Z,10.20
2019-03-22T12:53:29.588Z,9.63
2019-03-22T12:55:58.086Z,10.13
2019-03-22T12:58:26.567Z,9.53
2019-03-22T13:00:55.069Z,10.63
2019-03-22T13:03:24.454Z,10.58
2019-03-22T13:05:53.035Z,10.25
2019-03-22T13:08:21.526Z,9.70
2019-03-22T13:10:50.020Z,10.15
2019-03-22T13:13:18.508Z,9.88
2019-03-22T13:15:46.997Z,9.53
2019-03-22T13:18:15.477Z,8.85
2019-03-22T13:20:43.973Z,9.10
2019-03-22T13:23:12.459Z,9.15
2019-03-22T13:25:40.955Z,15.40
2019-03-22T13:28:09.444Z,9.90
2019-03-22T13:30:37.938Z,9.88
2019-03-22T13:33:06.425Z,9.58
2019-03-22T13:35:34.921Z,8.05
2019-03-22T13:38:03.410Z,8.20
2019-03-22T13:40:31.905Z,8.18
2019-03-22T13:43:00.388Z,8.53
2019-03-22T13:45:28.883Z,7.12
2019-03-22T13:47:57.507Z,8.95
2019-03-22T13:50:25.959Z,7.45
2019-03-22T13:52:54.451Z,8.08
2019-03-22T13:55:23.035Z,14.50
2019-03-22T13:57:51.535Z,8.45
2019-03-22T14:00:20.021Z,8.43
2019-03-22T14:02:48.514Z,8.73
2019-03-22T14:05:17.005Z,16.50
2019-03-22T14:07:45.508Z,8.28
2019-03-22T14:10:20.122Z,7.40
2019-03-22T14:12:48.621Z,10.10
2019-03-22T14:15:17.104Z,8.30
2019-03-22T14:17:45.598Z,11.05
2019-03-22T14:20:14.077Z,9.30
2019-03-22T14:22:42.571Z,7.35
2019-03-22T14:25:11.060Z,7.58
2019-03-22T14:27:39.606Z,8.15
2019-03-22T14:30:08.599Z,7.35
2019-03-22T14:32:37.082Z,7.70
2019-03-22T14:35:06.979Z,7.55
2019-03-22T14:37:35.476Z,6.50
2019-03-22T14:40:05.390Z,5.53
2019-03-22T14:42:33.857Z,10.08
2019-03-22T14:45:02.841Z,7.03
2019-03-22T14:47:31.332Z,6.12
2019-03-22T14:49:59.826Z,5.97
2019-03-22T14:52:28.306Z,5.83
2019-03-22T14:54:56.801Z,4.95
2019-03-22T14:57:25.282Z,6.10
2019-03-22T14:59:58.888Z,7.42
2019-03-22T15:02:23.981Z,9.30
2019-03-22T15:04:52.481Z,7.00
2019-03-22T15:07:20.968Z,6.30
2019-03-22T15:09:49.473Z,5.85
2019-03-22T15:12:17.953Z,6.37
2019-03-22T15:15:01.490Z,6.10
2019-03-22T15:17:49.902Z,8.88
2019-03-22T15:20:31.844Z,7.00
2019-03-22T15:23:18.677Z,7.20
2019-03-22T15:26:05.017Z,8.50
2019-03-22T15:28:40.962Z,8.63
2019-03-22T15:31:13.725Z,7.22
2019-03-22T15:33:59.744Z,7.28
2019-03-22T15:36:29.819Z,9.45
2019-03-22T15:39:03.041Z,8.68
2019-03-22T15:41:31.823Z,8.20
2019-03-22T15:44:00.333Z,10.10
2019-03-22T15:46:28.806Z,8.93
2019-03-22T15:48:57.293Z,9.13
2019-03-22T15:51:25.779Z,9.88
2019-03-22T15:53:54.281Z,11.35
2019-03-22T15:56:22.767Z,10.80
2019-03-22T15:58:51.266Z,9.15
2019-03-22T16:01:19.752Z,12.60
2019-03-22T16:03:48.246Z,9.20
2019-03-22T16:06:16.745Z,10.60
2019-03-22T16:08:45.512Z,10.58
2019-03-22T16:11:13.972Z,9.23
2019-03-22T16:13:42.485Z,10.82
2019-03-22T16:16:10.973Z,11.57
2019-03-22T16:18:39.474Z,10.13
2019-03-22T16:21:07.961Z,12.70
2019-03-22T16:23:36.460Z,10.58
2019-03-22T16:26:04.949Z,10.08
2019-03-22T16:28:33.481Z,11.10
2019-03-22T16:31:02.150Z,11.97
2019-03-22T16:33:30.839Z,13.18
2019-03-22T16:36:00.040Z,14.15
2019-03-22T16:38:28.618Z,14.05
2019-03-22T16:40:57.195Z,17.65
2019-03-22T16:43:25.779Z,15.08
2019-03-22T16:45:54.471Z,11.90
2019-03-22T16:48:23.044Z,10.78
2019-03-22T16:50:51.728Z,9.83
2019-03-22T16:53:20.308Z,11.05
2019-03-22T16:55:49.000Z,12.18
2019-03-22T16:58:17.578Z,13.20
2019-03-22T17:00:46.162Z,14.58
2019-03-22T17:03:14.760Z,17.37
2019-03-22T17:05:43.529Z,16.15
2019-03-22T17:08:12.220Z,21.40
2019-03-22T17:10:40.794Z,21.33
2019-03-22T17:13:09.373Z,24.05
2019-03-22T17:15:37.954Z,23.60
2019-03-22T17:18:06.658Z,43.73
2019-03-22T17:20:35.326Z,46.15
2019-03-22T17:23:03.906Z,48.17
2019-03-22T17:25:32.487Z,46.95
2019-03-22T17:28:01.069Z,45.23
2019-03-22T17:30:29.652Z,35.45
2019-03-22T17:32:58.339Z,21.35
2019-03-22T17:35:26.921Z,17.85
2019-03-22T17:37:55.705Z,16.42
2019-03-22T17:40:24.285Z,15.30
2019-03-22T17:42:52.874Z,15.35
2019-03-22T17:45:21.556Z,16.35
2019-03-22T17:47:50.238Z,14.00
2019-03-22T17:50:18.926Z,11.60
2019-03-22T17:52:47.503Z,11.85
2019-03-22T17:55:16.191Z,11.60
2019-03-22T17:57:44.767Z,12.37
2019-03-22T18:00:17.447Z,12.88
2019-03-22T18:02:46.022Z,9.75
2019-03-22T18:05:14.609Z,9.88
2019-03-22T18:07:43.191Z,11.50
2019-03-22T18:10:12.282Z,16.00
2019-03-22T18:12:40.879Z,24.18
2019-03-22T18:15:11.806Z,20.10
2019-03-22T18:17:40.385Z,17.98
2019-03-22T18:20:11.073Z,13.95
2019-03-22T18:22:39.705Z,14.28
2019-03-22T18:25:09.385Z,13.75
2019-03-22T18:27:37.987Z,21.30
2019-03-22T18:30:14.258Z,16.90
2019-03-22T18:32:42.834Z,12.70
2019-03-22T18:35:11.416Z,10.82
2019-03-22T18:37:39.996Z,9.48
2019-03-22T18:40:15.429Z,10.38
2019-03-22T18:42:44.123Z,8.78
2019-03-22T18:45:13.316Z,8.90
2019-03-22T18:47:42.207Z,8.38
2019-03-22T18:50:11.483Z,9.95
2019-03-22T18:52:40.089Z,11.68
2019-03-22T18:55:08.877Z,9.98
2019-03-22T18:57:37.561Z,10.53
2019-03-22T19:00:08.706Z,10.70
2019-03-22T19:02:37.389Z,14.93
2019-03-22T19:05:07.876Z,21.75
2019-03-22T19:07:36.492Z,14.40
2019-03-22T19:10:10.403Z,10.40
2019-03-22T19:12:39.089Z,11.70
2019-03-22T19:15:09.762Z,11.88
2019-03-22T19:17:38.400Z,12.00
2019-03-22T19:20:11.793Z,11.25
2019-03-22T19:22:40.373Z,10.75
2019-03-22T19:25:09.364Z,9.10
2019-03-22T19:27:37.948Z,9.93
2019-03-22T19:30:09.705Z,10.25
2019-03-22T19:32:38.898Z,9.85
2019-03-22T19:35:14.346Z,10.72
2019-03-22T19:37:45.176Z,10.05
2019-03-22T19:40:14.633Z,11.22
2019-03-22T19:42:43.264Z,10.50
2019-03-22T19:45:16.717Z,9.10
2019-03-22T19:47:45.553Z,8.53
2019-03-22T19:50:15.542Z,11.53
2019-03-22T19:52:44.141Z,13.90
2019-03-22T19:55:13.237Z,8.43
2019-03-22T19:57:41.822Z,8.03
2019-03-22T20:00:19.000Z,8.30
2019-03-22T20:02:49.240Z,8.23
2019-03-22T20:05:32.457Z,11.12
2019-03-22T20:08:01.954Z,7.22
2019-03-22T20:10:30.531Z,10.03
2019-03-22T20:12:59.119Z,10.60
2019-03-22T20:15:27.696Z,9.15
2019-03-22T20:17:56.279Z,13.80
2019-03-22T20:20:24.858Z,11.28
2019-03-22T20:22:53.441Z,8.45
2019-03-22T20:25:22.129Z,8.10
2019-03-22T20:27:50.810Z,9.95
2019-03-22T20:30:19.799Z,8.65
2019-03-22T20:32:48.384Z,7.85
2019-03-22T20:35:17.240Z,7.92
2019-03-22T20:37:45.956Z,7.80
2019-03-22T20:40:18.537Z,7.30
2019-03-22T20:42:47.212Z,6.33
2019-03-22T20:45:24.203Z,6.42
2019-03-22T20:47:46.118Z,6.42
2019-03-22T20:50:14.702Z,6.67
2019-03-22T20:52:43.285Z,9.33
2019-03-22T20:55:11.968Z,9.50
2019-03-22T20:57:40.548Z,7.83
2019-03-22T21:00:14.557Z,7.67
2019-03-22T21:02:43.154Z,7.00
2019-03-22T21:05:11.722Z,7.10
2019-03-22T21:07:40.304Z,7.00
2019-03-22T21:10:09.602Z,5.47
2019-03-22T21:12:38.184Z,5.55
2019-03-22T21:15:08.531Z,5.85
2019-03-22T21:17:38.745Z,5.35
2019-03-22T21:20:08.433Z,5.60
2019-03-22T21:22:36.921Z,5.75
2019-03-22T21:25:09.561Z,6.53
2019-03-22T21:27:38.058Z,5.95
2019-03-22T21:30:11.944Z,5.95
2019-03-22T21:32:45.086Z,6.55
2019-03-22T21:35:21.559Z,7.00
2019-03-22T21:37:40.873Z,7.78
2019-03-22T21:40:10.459Z,9.13
2019-03-22T21:42:38.954Z,8.85
2019-03-22T21:45:08.233Z,8.65
2019-03-22T21:47:36.737Z,7.72
2019-03-22T21:50:09.765Z,7.83
2019-03-22T21:52:38.264Z,9.03
2019-03-22T21:55:07.850Z,8.85
2019-03-22T21:57:36.356Z,10.75
2019-03-22T22:00:09.513Z,10.65
2019-03-22T22:02:38.050Z,12.33
2019-03-22T22:05:07.042Z,13.72
2019-03-22T22:07:35.538Z,13.83
2019-03-22T22:10:08.739Z,12.47
2019-03-22T22:12:37.244Z,13.03
2019-03-22T22:15:09.008Z,15.28
2019-03-22T22:17:39.315Z,14.73
2019-03-22T22:20:07.873Z,14.63
2019-03-22T22:22:36.375Z,11.35
2019-03-22T22:25:06.737Z,9.10
2019-03-22T22:27:35.396Z,9.23
2019-03-22T22:30:06.395Z,10.53
2019-03-22T22:32:34.877Z,9.08
2019-03-22T22:35:04.473Z,8.65
2019-03-22T22:37:32.959Z,9.85
2019-03-22T22:40:01.457Z,10.20
2019-03-22T22:42:29.958Z,12.35
2019-03-22T22:44:58.457Z,9.83
2019-03-22T22:47:26.942Z,10.45
2019-03-22T22:49:55.482Z,11.60
2019-03-22T22:52:23.979Z,11.28
2019-03-22T22:54:52.466Z,12.60
2019-03-22T22:57:20.970Z,11.85
2019-03-22T22:59:49.456Z,11.75
2019-03-22T23:02:17.951Z,11.33
2019-03-22T23:04:46.441Z,11.12
2019-03-22T23:07:14.935Z,10.48
2019-03-22T23:09:43.437Z,10.72
2019-03-22T23:12:12.127Z,11.05
2019-03-22T23:14:40.611Z,10.85
2019-03-22T23:17:09.107Z,10.58
2019-03-22T23:19:37.599Z,11.60
2019-03-22T23:22:06.102Z,11.08
2019-03-22T23:24:34.592Z,11.60
2019-03-22T23:27:03.091Z,10.90
2019-03-22T23:29:31.608Z,10.88
2019-03-22T23:32:00.078Z,10.68
2019-03-22T23:34:28.568Z,11.28
2019-03-22T23:36:57.115Z,13.45
2019-03-22T23:39:25.607Z,12.05
2019-03-22T23:41:54.098Z,13.05
2019-03-22T23:44:22.601Z,12.37
2019-03-22T23:46:51.081Z,9.38
2019-03-22T23:49:19.578Z,8.88
2019-03-22T23:51:48.068Z,8.63
2019-03-22T23:54:16.560Z,9.05
2019-03-22T23:56:45.051Z,11.45
2019-03-22T23:59:13.548Z,10.20
